Time;durP1;ratioP1;P1;durP2;ratioP2;P2;SDS_P1;SDS_P2;PMS_P1;PMS_P2;Temp;Humidity;BMP_temperature;BMP_pressure;BME280_temperature;BME280_humidity;BME280_pressure;Samples;Min_cycle;Max_cycle;Signal;HPM_P1;HPM_P2
2023/10/01 00:02:21;;;;;;;0.73;0.50;;;15.10;99.90;;;;;;5116699;28;20044;-75
2023/10/01 00:04:46;;;;;;;0.77;0.50;;;15.10;99.90;;;;;;5116946;28;20058;-74
2023/10/01 00:07:12;;;;;;;0.30;0.30;;;15.10;99.90;;;;;;5116376;28;20050;-74
2023/10/01 00:09:38;;;;;;;0.50;0.50;;;15.10;99.90;;;;;;5116740;28;20044;-74
2023/10/01 00:12:04;;;;;;;0.50;0.50;;;15.20;99.90;;;;;;5116432;28;20075;-74
2023/10/01 00:14:30;;;;;;;0.32;0.32;;;15.10;99.90;;;;;;5116472;28;20043;-75
2023/10/01 00:16:55;;;;;;;0.37;0.37;;;15.10;99.90;;;;;;5116826;28;20153;-73
2023/10/01 00:19:21;;;;;;;0.80;0.60;;;15.10;99.90;;;;;;5116399;28;20123;-75
2023/10/01 00:21:47;;;;;;;0.50;0.50;;;15.00;99.90;;;;;;5116410;28;20036;-75
2023/10/01 00:24:12;;;;;;;0.50;0.50;;;15.00;99.90;;;;;;5116326;28;20066;-75
2023/10/01 00:26:38;;;;;;;0.63;0.50;;;15.00;99.90;;;;;;5116241;28;20378;-74
2023/10/01 00:29:04;;;;;;;0.40;0.40;;;14.90;99.90;;;;;;5115972;28;20096;-75
2023/10/01 00:31:30;;;;;;;0.53;0.53;;;14.90;99.90;;;;;;5116128;28;20035;-74
2023/10/01 00:33:56;;;;;;;0.50;0.50;;;14.90;99.90;;;;;;5116451;28;20039;-74
2023/10/01 00:36:23;;;;;;;0.83;0.70;;;14.80;99.90;;;;;;5116232;28;20123;-74
2023/10/01 00:38:48;;;;;;;0.50;0.50;;;14.80;99.90;;;;;;5116059;28;20059;-72
2023/10/01 00:41:15;;;;;;;0.50;0.50;;;14.70;99.90;;;;;;5115912;28;20035;-73
2023/10/01 00:43:41;;;;;;;0.70;0.70;;;14.80;99.90;;;;;;5115880;28;20082;-74
2023/10/01 00:46:08;;;;;;;0.73;0.73;;;14.80;99.90;;;;;;5116309;28;20045;-74
2023/10/01 00:48:34;;;;;;;;;;;14.80;99.90;;;;;;5116260;28;20051;-73
2023/10/01 00:51:01;;;;;;;1.75;0.50;;;14.70;99.90;;;;;;5115576;28;20342;-75
2023/10/01 00:53:26;;;;;;;1.42;0.55;;;14.70;99.90;;;;;;5115923;28;20032;-74
2023/10/01 00:55:53;;;;;;;0.33;0.33;;;14.70;99.90;;;;;;5115596;28;20035;-73
2023/10/01 00:58:19;;;;;;;0.40;0.40;;;14.70;99.90;;;;;;5115336;27;20039;-74
2023/10/01 01:00:49;;;;;;;0.73;0.57;;;14.70;99.90;;;;;;5115983;28;20092;-75
2023/10/01 01:03:22;;;;;;;0.52;0.52;;;14.70;99.90;;;;;;5115421;27;20046;-74
2023/10/01 01:08:46;;;;;;;0.50;0.50;;;14.60;99.90;;;;;;5115457;28;20055;-74
2023/10/01 01:11:16;;;;;;;0.43;0.43;;;14.50;99.90;;;;;;5115443;28;20039;-74
2023/10/01 01:13:43;;;;;;;1.00;0.63;;;14.60;99.90;;;;;;5115366;28;20078;-73
2023/10/01 01:16:13;;;;;;;0.40;0.40;;;14.60;99.90;;;;;;5115189;28;20027;-75
2023/10/01 01:18:42;;;;;;;2.80;0.65;;;14.60;99.90;;;;;;5115410;28;20040;-75
2023/10/01 01:21:13;;;;;;;0.50;0.50;;;14.60;99.90;;;;;;5115114;28;20044;-73
2023/10/01 01:23:45;;;;;;;0.57;0.57;;;14.60;99.90;;;;;;5115169;28;20558;-75
2023/10/01 01:26:13;;;;;;;0.30;0.30;;;14.60;99.90;;;;;;5115198;28;20071;-73
2023/10/01 01:28:41;;;;;;;0.40;0.40;;;14.60;99.90;;;;;;5115296;28;20043;-74
2023/10/01 01:31:08;;;;;;;0.40;0.40;;;14.60;99.90;;;;;;5115106;28;20038;-75
2023/10/01 01:33:40;;;;;;;;;;;14.60;99.90;;;;;;5115384;28;20126;-75
2023/10/01 01:36:09;;;;;;;1.55;0.90;;;14.60;99.90;;;;;;5114935;27;19922;-74
2023/10/01 01:38:37;;;;;;;0.43;0.43;;;14.70;99.90;;;;;;5114866;28;20092;-74
2023/10/01 01:41:06;;;;;;;0.40;0.40;;;14.60;99.90;;;;;;5114846;28;20100;-75
2023/10/01 01:43:32;;;;;;;0.50;0.50;;;14.60;99.90;;;;;;5115040;28;20395;-73
2023/10/01 01:46:09;;;;;;;0.40;0.40;;;14.60;99.90;;;;;;5114823;28;20040;-75
2023/10/01 01:48:40;;;;;;;0.90;0.45;;;14.70;99.90;;;;;;5115245;28;20035;-74
2023/10/01 01:51:06;;;;;;;0.43;0.43;;;14.70;99.90;;;;;;5115157;28;20039;-74
2023/10/01 01:53:36;;;;;;;0.57;0.57;;;14.60;99.90;;;;;;5114926;28;20043;-74
2023/10/01 01:56:16;;;;;;;0.40;0.40;;;14.70;99.90;;;;;;5114525;28;20061;-74
2023/10/01 01:58:43;;;;;;;1.27;0.75;;;14.70;99.90;;;;;;5114490;28;20065;-74
2023/10/01 02:03:39;;;;;;;0.40;0.40;;;14.70;99.90;;;;;;5114361;28;20043;-75
2023/10/01 02:06:06;;;;;;;0.40;0.40;;;14.60;99.90;;;;;;5114408;28;20066;-72
2023/10/01 02:11:20;;;;;;;0.38;0.38;;;14.70;99.90;;;;;;5114224;28;20047;-74
2023/10/01 02:13:54;;;;;;;0.80;0.70;;;14.60;99.90;;;;;;5114807;28;20081;-74
2023/10/01 02:19:11;;;;;;;0.40;0.40;;;14.70;99.90;;;;;;5114547;28;20364;-74
2023/10/01 02:21:43;;;;;;;0.52;0.52;;;14.60;99.90;;;;;;5114360;28;20096;-72
2023/10/01 02:24:54;;;;;;;0.38;0.38;;;14.60;99.90;;;;;;5114201;28;20039;-75
2023/10/01 02:27:20;;;;;;;1.77;0.80;;;14.60;99.90;;;;;;5114459;28;20035;-74
2023/10/01 02:30:11;;;;;;;1.00;0.70;;;14.60;99.90;;;;;;5113005;28;20031;-74
2023/10/01 02:32:33;;;;;;;0.60;0.50;;;14.60;99.90;;;;;;5114949;28;20043;-74
2023/10/01 02:34:59;;;;;;;0.40;0.40;;;14.60;99.90;;;;;;5113773;28;20487;-74
2023/10/01 02:37:35;;;;;;;0.83;0.83;;;14.60;99.90;;;;;;5114171;28;20080;-73
2023/10/01 02:40:20;;;;;;;0.75;0.75;;;14.60;99.90;;;;;;5114196;28;20048;-76
2023/10/01 02:42:49;;;;;;;0.50;0.50;;;14.60;99.90;;;;;;5114046;28;20054;-75
2023/10/01 02:45:30;;;;;;;0.50;0.50;;;14.60;99.90;;;;;;5114070;28;20043;-74
2023/10/01 02:48:18;;;;;;;0.68;0.68;;;14.60;99.90;;;;;;5114223;28;20040;-75
2023/10/01 02:50:52;;;;;;;0.63;0.63;;;14.60;99.90;;;;;;5113116;28;20096;-75
2023/10/01 02:53:20;;;;;;;0.85;0.85;;;14.60;99.90;;;;;;5114021;28;20047;-74
2023/10/01 02:55:46;;;;;;;0.60;0.60;;;14.60;99.90;;;;;;5113831;28;20046;-75
2023/10/01 02:58:19;;;;;;;0.88;0.80;;;14.60;99.90;;;;;;5114198;28;20547;-75
2023/10/01 03:00:46;;;;;;;0.50;0.50;;;14.60;99.90;;;;;;5114127;28;20096;-75
2023/10/01 03:03:17;;;;;;;0.88;0.85;;;14.60;99.90;;;;;;5113612;28;20138;-77
2023/10/01 03:05:46;;;;;;;2.25;0.98;;;14.60;99.90;;;;;;5113845;28;20038;-75
2023/10/01 03:08:40;;;;;;;0.50;0.50;;;14.60;99.90;;;;;;5113412;28;20054;-75
2023/10/01 03:11:02;;;;;;;0.63;0.60;;;14.60;99.90;;;;;;5113782;28;20475;-76
2023/10/01 03:13:30;;;;;;;0.60;0.60;;;14.60;99.90;;;;;;5113666;28;20051;-74
2023/10/01 03:18:45;;;;;;;0.40;0.40;;;14.60;99.90;;;;;;5117674;28;20047;-76
2023/10/01 03:22:13;;;;;;;0.98;0.98;;;14.60;99.90;;;;;;5117259;28;20044;-75
2023/10/01 03:24:09;;;;;;;0.85;0.68;;;14.60;99.90;;;;;;5117024;28;20051;-75
2023/10/01 03:26:35;;;;;;;0.88;0.80;;;14.50;99.90;;;;;;5117408;28;20089;-76
2023/10/01 03:29:21;;;;;;;0.80;0.80;;;14.50;99.90;;;;;;5117451;27;20039;-75
2023/10/01 03:31:47;;;;;;;0.50;0.50;;;14.60;99.90;;;;;;5117472;28;20043;-74
2023/10/01 03:34:28;;;;;;;0.70;0.70;;;14.60;99.90;;;;;;5117378;28;20045;-74
2023/10/01 03:36:58;;;;;;;0.50;0.50;;;14.60;99.90;;;;;;5117398;28;20047;-75
2023/10/01 03:39:25;;;;;;;0.90;0.70;;;14.60;99.90;;;;;;5117213;28;20039;-74
2023/10/01 03:41:57;;;;;;;1.20;0.45;;;14.50;99.90;;;;;;5117192;28;20047;-75
2023/10/01 03:47:09;;;;;;;0.73;0.70;;;14.60;99.90;;;;;;5116900;28;20131;-74
2023/10/01 03:49:43;;;;;;;0.70;0.70;;;14.50;99.90;;;;;;5116980;28;20115;-75
2023/10/01 03:52:09;;;;;;;0.50;0.50;;;14.60;99.90;;;;;;5117012;28;20048;-75
2023/10/01 03:57:20;;;;;;;0.60;0.60;;;14.60;99.90;;;;;;5116932;28;20383;-74
2023/10/01 03:59:52;;;;;;;0.70;0.67;;;14.60;99.90;;;;;;5116593;28;20039;-74
2023/10/01 04:02:28;;;;;;;0.80;0.80;;;14.60;99.90;;;;;;5116857;28;20055;-74
2023/10/01 04:05:03;;;;;;;0.57;0.57;;;14.60;99.90;;;;;;5117133;28;20378;-75
2023/10/01 04:07:45;;;;;;;1.30;1.10;;;14.50;99.90;;;;;;5116694;27;20149;-73
2023/10/01 04:10:14;;;;;;;0.40;0.40;;;14.60;99.90;;;;;;5116731;28;20066;-73
2023/10/01 04:12:44;;;;;;;0.80;0.57;;;14.60;99.90;;;;;;5116486;28;20043;-75
2023/10/01 04:15:15;;;;;;;0.73;0.73;;;14.60;99.90;;;;;;5116588;28;20075;-75
2023/10/01 04:18:08;;;;;;;0.80;0.50;;;14.60;99.90;;;;;;5116872;28;20040;-73
2023/10/01 04:20:28;;;;;;;0.63;0.63;;;14.60;99.90;;;;;;5116034;28;20039;-72
2023/10/01 04:23:04;;;;;;;0.40;0.40;;;14.60;99.90;;;;;;5116398;27;20093;-73
2023/10/01 04:25:36;;;;;;;0.50;0.50;;;14.60;99.90;;;;;;5116728;27;20039;-72
2023/10/01 04:28:05;;;;;;;0.80;0.60;;;14.60;99.90;;;;;;5116222;28;20122;-74
2023/10/01 04:30:34;;;;;;;0.80;0.75;;;14.60;99.90;;;;;;5116222;28;20047;-74
2023/10/01 04:33:16;;;;;;;0.40;0.40;;;14.60;99.90;;;;;;5116237;28;20043;-74
2023/10/01 04:35:51;;;;;;;0.52;0.52;;;14.60;99.90;;;;;;5115808;28;20043;-73
2023/10/01 04:38:21;;;;;;;0.60;0.60;;;14.60;99.90;;;;;;5116107;28;20039;-73
2023/10/01 04:40:48;;;;;;;0.52;0.52;;;14.60;99.90;;;;;;5115854;28;20533;-73
2023/10/01 04:43:16;;;;;;;0.50;0.50;;;14.60;99.90;;;;;;5115952;28;20039;-74
2023/10/01 04:45:44;;;;;;;0.40;0.40;;;14.60;99.90;;;;;;5116111;28;20039;-74
2023/10/01 04:48:22;;;;;;;0.77;0.77;;;14.60;99.90;;;;;;5115841;28;20079;-75
2023/10/01 04:50:50;;;;;;;0.80;0.80;;;14.60;99.90;;;;;;5115899;28;20085;-75
2023/10/01 04:53:20;;;;;;;0.30;0.30;;;15.00;99.90;;;;;;5115836;28;20031;-76
2023/10/01 04:55:57;;;;;;;1.20;0.95;;;14.60;99.90;;;;;;5115977;28;20370;-73
2023/10/01 04:58:24;;;;;;;0.60;0.60;;;14.60;99.90;;;;;;5115785;28;20031;-75
2023/10/01 05:00:50;;;;;;;0.52;0.52;;;14.60;99.90;;;;;;5115687;28;20043;-75
2023/10/01 05:03:16;;;;;;;0.40;0.40;;;14.70;99.90;;;;;;5115578;28;20164;-73
2023/10/01 05:05:44;;;;;;;1.90;0.97;;;14.60;99.90;;;;;;5115622;28;20461;-74
2023/10/01 05:08:14;;;;;;;1.00;0.95;;;14.60;99.90;;;;;;5115163;28;20126;-76
2023/10/01 05:10:51;;;;;;;0.50;0.50;;;14.60;99.90;;;;;;5115589;28;20074;-74
2023/10/01 05:13:20;;;;;;;1.02;0.70;;;14.60;99.90;;;;;;5115406;28;20502;-75
2023/10/01 05:15:49;;;;;;;0.80;0.80;;;14.60;99.90;;;;;;5115255;28;20371;-77
2023/10/01 05:18:19;;;;;;;1.50;0.70;;;14.60;99.90;;;;;;5115296;28;20176;-75
2023/10/01 05:20:48;;;;;;;0.50;0.50;;;14.60;99.90;;;;;;5115277;28;20119;-73
2023/10/01 05:23:15;;;;;;;0.70;0.70;;;14.60;99.90;;;;;;5115550;28;20035;-75
2023/10/01 05:25:45;;;;;;;0.50;0.50;;;14.60;99.90;;;;;;5115083;28;20039;-74
2023/10/01 05:28:23;;;;;;;1.33;0.75;;;14.60;99.90;;;;;;5115629;28;20071;-74
2023/10/01 05:30:56;;;;;;;0.73;0.73;;;14.60;99.90;;;;;;5115152;28;20043;-73
2023/10/01 05:33:24;;;;;;;0.65;0.65;;;14.60;99.90;;;;;;5114779;28;20529;-75
2023/10/01 05:35:53;;;;;;;0.50;0.50;;;14.60;99.90;;;;;;5114885;28;20035;-74
2023/10/01 05:38:19;;;;;;;0.70;0.70;;;14.60;99.90;;;;;;5113924;28;20048;-73
2023/10/01 05:40:45;;;;;;;0.70;0.60;;;14.70;99.90;;;;;;5115281;28;20363;-75
2023/10/01 05:43:13;;;;;;;0.60;0.60;;;14.70;99.90;;;;;;5114794;28;20047;-74
2023/10/01 05:45:52;;;;;;;0.50;0.50;;;14.70;99.90;;;;;;5115100;28;20031;-75
2023/10/01 05:48:23;;;;;;;3.60;0.93;;;14.70;99.90;;;;;;5114841;28;20047;-73
2023/10/01 05:50:53;;;;;;;0.63;0.50;;;14.70;99.90;;;;;;5114548;28;20118;-76
2023/10/01 05:53:18;;;;;;;1.65;0.93;;;14.70;99.90;;;;;;5114568;28;20043;-75
2023/10/01 05:55:44;;;;;;;0.80;0.70;;;14.70;99.90;;;;;;5114504;28;20039;-76
2023/10/01 05:58:13;;;;;;;0.50;0.50;;;14.70;99.90;;;;;;5114716;28;20051;-73
2023/10/01 06:00:53;;;;;;;0.98;0.88;;;14.80;99.90;;;;;;5114542;28;20440;-75
2023/10/01 06:03:19;;;;;;;0.65;0.52;;;14.80;99.90;;;;;;5114525;28;20078;-74
2023/10/01 06:05:57;;;;;;;0.70;0.70;;;14.70;99.90;;;;;;5114959;28;20075;-75
2023/10/01 06:08:32;;;;;;;1.88;1.30;;;14.70;99.90;;;;;;5113995;28;20051;-75
2023/10/01 06:11:04;;;;;;;1.00;0.70;;;14.70;99.90;;;;;;5114313;28;20530;-74
2023/10/01 06:13:30;;;;;;;0.65;0.50;;;14.70;99.90;;;;;;5114531;28;20032;-75
2023/10/01 06:15:57;;;;;;;1.25;0.90;;;14.70;99.90;;;;;;5114207;28;20039;-74
2023/10/01 06:18:26;;;;;;;1.08;0.65;;;14.70;99.90;;;;;;5114321;28;20074;-74
2023/10/01 06:20:53;;;;;;;0.73;0.70;;;14.70;99.90;;;;;;5114721;28;20118;-75
2023/10/01 06:23:25;;;;;;;1.10;0.77;;;14.70;99.90;;;;;;5114249;28;20047;-75
2023/10/01 06:25:53;;;;;;;0.52;0.52;;;14.70;99.90;;;;;;5114203;28;20032;-74
2023/10/01 06:28:23;;;;;;;0.80;0.38;;;14.70;99.90;;;;;;5114183;28;20360;-76
2023/10/01 06:30:49;;;;;;;0.80;0.65;;;14.70;99.90;;;;;;5114176;28;20447;-74
2023/10/01 06:33:29;;;;;;;0.40;0.40;;;14.70;99.90;;;;;;5114191;28;20180;-74
2023/10/01 06:38:53;;;;;;;0.60;0.60;;;14.70;99.90;;;;;;5100686;28;20040;-74
2023/10/01 06:41:25;;;;;;;0.40;0.40;;;14.70;99.90;;;;;;5114040;28;20119;-74
2023/10/01 06:43:56;;;;;;;0.40;0.40;;;14.70;99.90;;;;;;5113816;28;20092;-75
2023/10/01 06:46:28;;;;;;;0.85;0.65;;;14.80;99.90;;;;;;5114320;28;20047;-76
2023/10/01 06:48:58;;;;;;;0.40;0.40;;;14.70;99.90;;;;;;5114139;28;20372;-75
2023/10/01 06:51:26;;;;;;;2.40;0.95;;;14.80;99.90;;;;;;5117899;28;20044;-75
2023/10/01 06:53:59;;;;;;;0.63;0.50;;;14.80;99.90;;;;;;5118100;28;20375;-75
2023/10/01 06:56:29;;;;;;;0.40;0.40;;;14.80;99.90;;;;;;5117863;28;20486;-74
2023/10/01 07:01:56;;;;;;;0.75;0.73;;;14.90;99.90;;;;;;5118122;28;20484;-73
2023/10/01 07:04:27;;;;;;;0.50;0.50;;;14.80;99.90;;;;;;5118303;28;20039;-74
2023/10/01 07:06:53;;;;;;;0.50;0.50;;;14.80;99.90;;;;;;5117900;28;20099;-75
2023/10/01 07:09:32;;;;;;;0.47;0.47;;;14.80;99.90;;;;;;5118174;27;20090;-74
2023/10/01 07:12:00;;;;;;;1.17;0.90;;;14.90;99.90;;;;;;5117679;28;20188;-76
2023/10/01 07:14:43;;;;;;;1.17;0.73;;;14.80;99.90;;;;;;5117551;28;20035;-75
2023/10/01 07:17:18;;;;;;;0.70;0.70;;;14.80;99.90;;;;;;5117688;28;20376;-75
2023/10/01 07:19:45;;;;;;;1.40;0.80;;;14.80;99.90;;;;;;5117675;28;20046;-77
2023/10/01 07:22:14;;;;;;;0.50;0.50;;;14.80;99.90;;;;;;5117508;28;20043;-73
2023/10/01 07:24:43;;;;;;;0.63;0.63;;;14.70;99.90;;;;;;5117443;28;20048;-75
2023/10/01 07:27:11;;;;;;;0.77;0.77;;;14.70;99.90;;;;;;5117416;28;20052;-74
2023/10/01 07:29:43;;;;;;;0.65;0.65;;;14.80;99.90;;;;;;5117426;28;20420;-74
2023/10/01 07:32:14;;;;;;;0.82;0.82;;;14.70;99.90;;;;;;5117603;28;20032;-73
2023/10/01 07:34:48;;;;;;;0.50;0.50;;;14.80;99.90;;;;;;5117457;28;20049;-75
2023/10/01 07:37:23;;;;;;;0.70;0.70;;;14.80;99.90;;;;;;5117908;28;20043;-75
2023/10/01 07:39:55;;;;;;;0.57;0.57;;;14.80;99.90;;;;;;5117349;27;20093;-74
2023/10/01 07:42:22;;;;;;;0.77;0.50;;;14.80;99.90;;;;;;5117211;28;20132;-73
2023/10/01 07:44:49;;;;;;;0.43;0.40;;;14.90;99.90;;;;;;5117119;28;20386;-74
2023/10/01 07:47:28;;;;;;;0.40;0.40;;;14.90;99.90;;;;;;5116838;28;20044;-75
2023/10/01 07:49:56;;;;;;;0.40;0.40;;;15.00;99.90;;;;;;5116849;28;20363;-74
2023/10/01 07:52:23;;;;;;;0.63;0.63;;;15.00;99.90;;;;;;5117059;28;20435;-74
2023/10/01 07:54:49;;;;;;;0.50;0.50;;;15.10;99.90;;;;;;5116821;28;20488;-74
2023/10/01 07:57:16;;;;;;;0.70;0.70;;;15.10;99.90;;;;;;5116894;28;20089;-75
2023/10/01 07:59:43;;;;;;;0.75;0.75;;;15.20;99.90;;;;;;5116783;28;20423;-74
2023/10/01 08:07:17;;;;;;;0.43;0.43;;;15.30;99.90;;;;;;5116709;28;20043;-75
2023/10/01 08:09:51;;;;;;;2.08;0.95;;;15.40;99.90;;;;;;5116441;28;20092;-74
2023/10/01 08:12:28;;;;;;;0.73;0.73;;;15.40;99.90;;;;;;5116499;28;20051;-76
2023/10/01 08:15:29;;;;;;;0.80;0.80;;;15.50;99.90;;;;;;5115326;28;20036;-75
2023/10/01 08:18:23;;;;;;;0.90;0.63;;;15.60;99.90;;;;;;5117006;28;20032;-74
2023/10/01 08:20:57;;;;;;;0.50;0.50;;;15.70;99.90;;;;;;5116466;28;20079;-74
2023/10/01 08:23:33;;;;;;;0.52;0.52;;;15.80;99.90;;;;;;5116491;28;20370;-73
2023/10/01 08:26:44;;;;;;;0.93;0.77;;;15.90;99.90;;;;;;5116668;28;20126;-75
2023/10/01 08:29:00;;;;;;;0.80;0.80;;;15.90;99.90;;;;;;5107756;28;20475;-73
2023/10/01 08:34:23;;;;;;;0.50;0.50;;;16.00;99.90;;;;;;5116380;28;20428;-76
2023/10/01 08:36:54;;;;;;;1.02;0.93;;;16.00;99.90;;;;;;5116501;28;20408;-76
2023/10/01 08:39:47;;;;;;;0.47;0.40;;;16.10;99.90;;;;;;5115886;28;20474;-76
2023/10/01 08:42:14;;;;;;;0.52;0.52;;;16.10;99.90;;;;;;5116068;28;20035;-75
2023/10/01 08:44:48;;;;;;;0.50;0.50;;;16.20;99.90;;;;;;5115911;28;20375;-75
2023/10/01 08:47:34;;;;;;;0.70;0.70;;;16.20;99.90;;;;;;5115982;28;20045;-76
2023/10/01 08:50:18;;;;;;;1.27;0.82;;;16.20;99.90;;;;;;5115626;28;20470;-76
2023/10/01 08:52:57;;;;;;;0.60;0.60;;;16.20;99.90;;;;;;5115775;28;20043;-75
2023/10/01 08:58:25;;;;;;;0.50;0.50;;;16.40;99.90;;;;;;5116153;28;20043;-74
2023/10/01 09:00:53;;;;;;;0.50;0.50;;;16.40;99.90;;;;;;5115706;27;20047;-73
2023/10/01 09:03:34;;;;;;;1.75;0.60;;;16.50;99.90;;;;;;5115579;28;20084;-74
2023/10/01 09:06:03;;;;;;;0.60;0.60;;;16.60;99.90;;;;;;5115469;28;20086;-75
2023/10/01 09:08:32;;;;;;;0.75;0.75;;;16.60;99.90;;;;;;5115465;28;20047;-75
2023/10/01 09:11:10;;;;;;;2.03;0.93;;;16.70;99.90;;;;;;5115509;27;20058;-74
2023/10/01 09:13:47;;;;;;;0.85;0.85;;;16.70;99.90;;;;;;5115209;28;20043;-74
2023/10/01 09:16:13;;;;;;;0.30;0.30;;;16.80;99.90;;;;;;5115324;28;20046;-76
2023/10/01 09:19:42;;;;;;;0.53;0.53;;;16.90;99.90;;;;;;5115342;28;20379;-77
2023/10/01 09:21:47;;;;;;;1.13;1.00;;;17.00;99.90;;;;;;5106667;28;20063;-76
2023/10/01 09:24:38;;;;;;;1.38;1.10;;;17.10;99.90;;;;;;5115172;28;20040;-76
2023/10/01 09:27:28;;;;;;;0.55;0.52;;;17.10;99.90;;;;;;5115210;28;20036;-75
2023/10/01 09:32:55;;;;;;;0.87;0.77;;;17.30;99.90;;;;;;5115505;28;20047;-75
2023/10/01 09:35:38;;;;;;;0.60;0.45;;;17.40;99.90;;;;;;5114960;28;20027;-74
2023/10/01 09:38:10;;;;;;;0.45;0.40;;;17.40;99.90;;;;;;5114941;27;20032;-73
2023/10/01 09:40:46;;;;;;;0.50;0.50;;;17.50;99.90;;;;;;5114986;28;20075;-74
2023/10/01 09:43:24;;;;;;;0.82;0.75;;;17.50;99.90;;;;;;5114921;28;20106;-75
2023/10/01 09:45:51;;;;;;;1.88;0.80;;;17.50;99.90;;;;;;5114876;28;20080;-76
2023/10/01 09:48:35;;;;;;;1.67;1.25;;;17.50;99.90;;;;;;5114807;28;20205;-75
2023/10/01 09:51:13;;;;;;;0.35;0.35;;;17.60;99.90;;;;;;5114650;28;20153;-74
2023/10/01 09:53:44;;;;;;;0.77;0.77;;;17.60;99.90;;;;;;5115180;28;20408;-77
2023/10/01 09:56:14;;;;;;;1.10;0.77;;;17.60;99.90;;;;;;5114302;28;20502;-74
2023/10/01 09:58:47;;;;;;;0.38;0.38;;;17.60;99.90;;;;;;5114661;28;20035;-74
2023/10/01 10:01:17;;;;;;;0.80;0.77;;;17.70;99.90;;;;;;5114662;27;20038;-74
2023/10/01 10:03:43;;;;;;;0.40;0.40;;;17.60;99.90;;;;;;5114571;28;20382;-74
2023/10/01 10:06:13;;;;;;;0.40;0.40;;;17.70;99.90;;;;;;5114668;28;20463;-74
2023/10/01 10:08:40;;;;;;;0.60;0.43;;;17.70;99.90;;;;;;5114895;28;20062;-73
2023/10/01 10:11:23;;;;;;;0.55;0.55;;;17.90;99.90;;;;;;5114448;28;20131;-74
2023/10/01 10:13:50;;;;;;;0.68;0.40;;;18.10;99.90;;;;;;5114581;28;20414;-75
2023/10/01 10:16:35;;;;;;;1.33;0.82;;;18.20;99.90;;;;;;5114173;28;20047;-75
2023/10/01 10:19:05;;;;;;;0.55;0.55;;;18.30;99.90;;;;;;5114785;28;20040;-75
2023/10/01 10:24:45;;;;;;;1.27;0.82;;;18.50;99.90;;;;;;5113675;28;20103;-74
2023/10/01 10:27:22;;;;;;;0.32;0.32;;;18.50;99.90;;;;;;5114210;28;20055;-75
2023/10/01 10:32:27;;;;;;;1.23;0.50;;;18.60;99.90;;;;;;5114199;28;20096;-75
2023/10/01 10:35:14;;;;;;;3.22;0.55;;;18.60;99.90;;;;;;5114018;28;20086;-73
2023/10/01 10:37:44;;;;;;;0.45;0.45;;;18.70;99.90;;;;;;5114580;28;20122;-75
2023/10/01 10:40:22;;;;;;;0.52;0.52;;;18.70;99.90;;;;;;5114112;28;20039;-74
2023/10/01 10:43:00;;;;;;;0.70;0.65;;;18.80;99.90;;;;;;5114198;28;20387;-74
2023/10/01 10:45:44;;;;;;;0.40;0.40;;;18.90;99.90;;;;;;5114039;28;20044;-74
2023/10/01 10:48:14;;;;;;;0.60;0.50;;;19.00;99.90;;;;;;5113991;28;20047;-75
2023/10/01 10:50:49;;;;;;;1.42;1.20;;;19.10;99.90;;;;;;5113975;28;20044;-74
2023/10/01 10:53:29;;;;;;;1.10;0.60;;;19.30;99.90;;;;;;5114156;28;20348;-74
2023/10/01 10:56:09;;;;;;;0.52;0.52;;;19.30;99.90;;;;;;5113846;28;20046;-74
2023/10/01 10:58:39;;;;;;;1.75;0.65;;;19.50;99.90;;;;;;5114339;28;20044;-73
2023/10/01 11:01:15;;;;;;;0.40;0.40;;;19.60;99.90;;;;;;5113698;28;20479;-73
2023/10/01 11:03:57;;;;;;;0.88;0.60;;;19.70;99.90;;;;;;5113697;28;20045;-75
2023/10/01 11:06:40;;;;;;;0.80;0.60;;;19.90;99.90;;;;;;5113922;28;20089;-74
2023/10/01 11:09:26;;;;;;;0.60;0.60;;;20.10;99.90;;;;;;5113943;28;20112;-74
2023/10/01 11:12:22;;;;;;;1.40;0.95;;;20.20;99.90;;;;;;5113113;28;20391;-74
2023/10/01 11:17:47;;;;;;;0.60;0.50;;;20.40;99.90;;;;;;5113837;28;20079;-73
2023/10/01 11:20:22;;;;;;;0.70;0.50;;;20.50;99.90;;;;;;5113724;28;20122;-73
2023/10/01 11:22:49;;;;;;;0.68;0.68;;;20.50;99.90;;;;;;5113827;28;20051;-74
2023/10/01 11:25:15;;;;;;;0.50;0.50;;;20.50;99.90;;;;;;5113616;28;20411;-75
2023/10/01 11:28:04;;;;;;;1.57;0.73;;;20.50;99.90;;;;;;5113637;28;20039;-75
2023/10/01 11:30:34;;;;;;;0.63;0.60;;;20.60;99.90;;;;;;5113700;28;20488;-74
2023/10/01 11:33:13;;;;;;;0.60;0.40;;;20.70;99.90;;;;;;5112389;28;20043;-72
2023/10/01 11:38:47;;;;;;;0.60;0.60;;;21.00;99.90;;;;;;5082863;28;20047;-74
2023/10/01 11:41:13;;;;;;;0.53;0.53;;;21.10;99.90;;;;;;5117850;28;20042;-73
2023/10/01 11:43:45;;;;;;;0.30;0.30;;;21.20;99.90;;;;;;5117228;28;20039;-74
2023/10/01 11:46:19;;;;;;;3.20;0.80;;;21.20;99.90;;;;;;5117066;28;20051;-74
2023/10/01 11:49:04;;;;;;;0.50;0.50;;;21.20;99.90;;;;;;5117101;28;20490;-75
2023/10/01 11:51:32;;;;;;;0.50;0.50;;;21.20;99.90;;;;;;5117362;28;20032;-74
2023/10/01 11:54:09;;;;;;;0.47;0.47;;;21.30;99.90;;;;;;5116987;28;20052;-73
2023/10/01 11:57:04;;;;;;;0.60;0.60;;;21.30;99.90;;;;;;5116963;28;20039;-74
2023/10/01 11:59:36;;;;;;;0.95;0.73;;;21.20;99.90;;;;;;5117305;28;20040;-75
2023/10/01 12:02:20;;;;;;;0.30;0.30;;;21.20;99.90;;;;;;5116718;28;20420;-73
2023/10/01 12:05:00;;;;;;;0.60;0.60;;;21.30;99.90;;;;;;5116799;28;20089;-73
2023/10/01 12:07:45;;;;;;;0.30;0.30;;;21.30;99.90;;;;;;5116730;28;20055;-73
2023/10/01 12:10:31;;;;;;;1.35;0.47;;;21.30;99.90;;;;;;5116718;28;20040;-74
2023/10/01 12:12:58;;;;;;;0.30;0.30;;;21.30;99.90;;;;;;5116686;28;20086;-74
2023/10/01 12:15:37;;;;;;;0.52;0.47;;;21.30;99.90;;;;;;5116425;28;20039;-74
2023/10/01 12:18:15;;;;;;;0.57;0.57;;;21.30;99.90;;;;;;5117018;28;20126;-75
2023/10/01 12:20:49;;;;;;;0.40;0.40;;;21.30;99.90;;;;;;5116917;27;20047;-73
2023/10/01 12:23:16;;;;;;;0.88;0.77;;;21.30;99.90;;;;;;5116480;28;20047;-75
2023/10/01 12:25:53;;;;;;;0.60;0.60;;;21.40;99.90;;;;;;5116344;28;20459;-75
2023/10/01 12:28:25;;;;;;;0.60;0.60;;;21.40;99.90;;;;;;5116118;28;20044;-74
2023/10/01 12:30:57;;;;;;;0.88;0.82;;;21.50;99.90;;;;;;5116374;28;20506;-75
2023/10/01 12:33:46;;;;;;;0.30;0.30;;;21.50;99.90;;;;;;5116478;28;20044;-73
2023/10/01 12:36:58;;;;;;;0.88;0.73;;;21.60;99.90;;;;;;5116241;28;20042;-75
2023/10/01 12:41:35;;;;;;;0.30;0.30;;;21.70;99.90;;;;;;5116519;28;20047;-73
2023/10/01 12:44:24;;;;;;;0.88;0.30;;;21.70;99.90;;;;;;5116300;28;20058;-74
2023/10/01 12:47:00;;;;;;;2.97;0.40;;;21.70;99.90;;;;;;5115628;28;20036;-73
2023/10/01 12:49:31;;;;;;;0.55;0.55;;;21.70;99.90;;;;;;5115633;28;20050;-75
2023/10/01 12:51:57;;;;;;;0.35;0.35;;;21.90;99.90;;;;;;5115734;28;20039;-74
2023/10/01 12:54:28;;;;;;;1.80;1.03;;;21.90;99.90;;;;;;5115807;28;20038;-73
2023/10/01 12:57:05;;;;;;;0.80;0.60;;;21.90;99.90;;;;;;5115733;28;20086;-76
2023/10/01 12:59:43;;;;;;;0.20;0.20;;;21.90;99.90;;;;;;5114512;28;20044;-75
2023/10/01 13:02:28;;;;;;;0.75;0.60;;;22.00;99.90;;;;;;5114391;28;20031;-74
2023/10/01 13:05:20;;;;;;;1.60;1.02;;;22.10;99.90;;;;;;5115652;28;20043;-75
2023/10/01 13:07:52;;;;;;;0.40;0.40;;;22.10;99.90;;;;;;5115545;28;20083;-73
2023/10/01 13:10:33;;;;;;;0.60;0.55;;;22.10;99.90;;;;;;5115563;28;20092;-75
2023/10/01 13:13:01;;;;;;;0.57;0.50;;;22.20;99.90;;;;;;5115310;28;20086;-74
2023/10/01 13:15:30;;;;;;;0.95;0.93;;;22.20;99.90;;;;;;5115366;28;20066;-74
2023/10/01 13:18:04;;;;;;;1.45;0.40;;;22.20;99.90;;;;;;5115258;28;20066;-73
2023/10/01 13:20:46;;;;;;;0.45;0.45;;;22.20;99.90;;;;;;5115826;28;20036;-74
2023/10/01 13:23:12;;;;;;;0.30;0.30;;;22.40;99.90;;;;;;5115296;28;20040;-75
2023/10/01 13:25:46;;;;;;;1.75;0.50;;;22.40;99.90;;;;;;5114956;28;20578;-76
2023/10/01 13:28:17;;;;;;;0.40;0.40;;;22.40;99.90;;;;;;5115270;28;20044;-74
2023/10/01 13:33:25;;;;;;;0.30;0.30;;;22.40;99.90;;;;;;5115513;28;20039;-74
2023/10/01 13:35:58;;;;;;;0.35;0.35;;;22.40;99.90;;;;;;5114830;28;20085;-73
2023/10/01 14:11:06;;;;;;;0.40;0.40;;;22.60;99.90;;;;;;5114345;28;20047;-75
2023/10/01 14:13:35;;;;;;;1.05;0.40;;;22.60;99.90;;;;;;5114430;28;20043;-75
2023/10/01 14:16:17;;;;;;;0.38;0.38;;;22.60;99.90;;;;;;5114070;28;20035;-74
2023/10/01 14:18:53;;;;;;;0.40;0.40;;;22.70;99.90;;;;;;5114329;28;20482;-75
2023/10/01 14:21:23;;;;;;;0.30;0.30;;;22.70;99.90;;;;;;5114330;28;20043;-74
2023/10/01 14:26:43;;;;;;;1.75;0.85;;;22.70;99.90;;;;;;5114420;28;20047;-73
2023/10/01 14:29:10;;;;;;;1.08;0.38;;;22.70;99.90;;;;;;5113167;28;20050;-74
2023/10/01 14:31:41;;;;;;;0.50;0.50;;;22.60;99.90;;;;;;5114112;28;20048;-73
2023/10/01 14:34:08;;;;;;;0.50;0.50;;;22.60;99.90;;;;;;5114170;28;20110;-76
2023/10/01 14:36:39;;;;;;;0.52;0.52;;;22.50;99.90;;;;;;5114530;28;20039;-74
2023/10/01 14:39:09;;;;;;;0.40;0.40;;;22.50;99.90;;;;;;5114213;28;20040;-74
2023/10/01 14:41:41;;;;;;;0.30;0.30;;;22.30;99.90;;;;;;5114128;28;20036;-75
2023/10/01 14:44:07;;;;;;;2.88;0.80;;;22.30;99.90;;;;;;5114117;28;20042;-74
2023/10/01 14:46:34;;;;;;;0.45;0.45;;;22.30;99.90;;;;;;5114616;28;20035;-74
2023/10/01 14:49:05;;;;;;;;;;;22.20;99.90;;;;;;5114754;28;20413;-74